sensor_id;sensor_type;location;lat;lon;timestamp;pressure;altitude;pressure_sealevel;temperature;humidity
60319;BME280;46163;52.306;5.634;2023-02-03T00:00:37;102222.47;;;16.19;54.99
60319;BME280;46163;52.306;5.634;2023-02-03T00:03:03;102226.19;;;16.18;54.93
60319;BME280;46163;52.306;5.634;2023-02-03T00:05:30;102220.81;;;16.18;54.95
60319;BME280;46163;52.306;5.634;2023-02-03T00:07:57;102232.75;;;16.15;54.98
60319;BME280;46163;52.306;5.634;2023-02-03T00:10:22;102208.81;;;16.14;55.03
60319;BME280;46163;52.306;5.634;2023-02-03T00:12:49;102225.13;;;16.12;55.03
60319;BME280;46163;52.306;5.634;2023-02-03T00:15:15;102220.78;;;16.11;55.04
60319;BME280;46163;52.306;5.634;2023-02-03T00:17:41;102221.81;;;16.10;54.92
60319;BME280;46163;52.306;5.634;2023-02-03T00:20:07;102230.91;;;16.09;54.81
60319;BME280;46163;52.306;5.634;2023-02-03T00:22:33;102236.06;;;16.04;55.12
60319;BME280;46163;52.306;5.634;2023-02-03T00:24:58;102246.38;;;16.07;54.96
60319;BME280;46163;52.306;5.634;2023-02-03T00:27:24;102246.59;;;16.05;54.90
60319;BME280;46163;52.306;5.634;2023-02-03T00:29:50;102258.38;;;16.04;55.27
60319;BME280;46163;52.306;5.634;2023-02-03T00:32:15;102239.78;;;16.03;55.03
60319;BME280;46163;52.306;5.634;2023-02-03T00:34:41;102240.81;;;16.02;54.93
60319;BME280;46163;52.306;5.634;2023-02-03T00:37:07;102245.34;;;16.01;54.86
60319;BME280;46163;52.306;5.634;2023-02-03T00:39:35;102253.63;;;16.00;55.05
60319;BME280;46163;52.306;5.634;2023-02-03T00:42:02;102247.41;;;15.99;54.93
60319;BME280;46163;52.306;5.634;2023-02-03T00:44:28;102247.59;;;15.98;54.97
60319;BME280;46163;52.306;5.634;2023-02-03T00:46:54;102236.25;;;15.96;55.03
60319;BME280;46163;52.306;5.634;2023-02-03T00:49:19;102244.28;;;15.96;54.89
60319;BME280;46163;52.306;5.634;2023-02-03T00:51:45;102235.41;;;15.95;54.94
60319;BME280;46163;52.306;5.634;2023-02-03T00:54:10;102229.63;;;15.92;54.93
60319;BME280;46163;52.306;5.634;2023-02-03T00:56:38;102237.69;;;15.92;54.86
60319;BME280;46163;52.306;5.634;2023-02-03T00:59:04;102230.47;;;15.92;54.82
60319;BME280;46163;52.306;5.634;2023-02-03T01:01:29;102212.88;;;15.90;54.95
60319;BME280;46163;52.306;5.634;2023-02-03T01:03:55;102211.22;;;15.89;54.97
60319;BME280;46163;52.306;5.634;2023-02-03T01:06:22;102211.22;;;15.89;54.91
60319;BME280;46163;52.306;5.634;2023-02-03T01:08:48;102215.97;;;15.87;54.74
60319;BME280;46163;52.306;5.634;2023-02-03T01:11:20;102225.88;;;15.86;54.92
60319;BME280;46163;52.306;5.634;2023-02-03T01:13:46;102225.06;;;15.86;54.78
60319;BME280;46163;52.306;5.634;2023-02-03T01:16:15;102242.19;;;15.85;54.75
60319;BME280;46163;52.306;5.634;2023-02-03T01:18:41;102235.19;;;15.83;55.01
60319;BME280;46163;52.306;5.634;2023-02-03T01:21:09;102215.56;;;15.83;54.85
60319;BME280;46163;52.306;5.634;2023-02-03T01:23:36;102232.69;;;15.82;54.80
60319;BME280;46163;52.306;5.634;2023-02-03T01:26:09;102198.41;;;15.77;54.95
60319;BME280;46163;52.306;5.634;2023-02-03T01:28:39;102190.97;;;15.79;55.01
60319;BME280;46163;52.306;5.634;2023-02-03T01:31:17;102200.03;;;15.78;54.78
60319;BME280;46163;52.306;5.634;2023-02-03T01:33:43;102194.69;;;15.78;54.83
60319;BME280;46163;52.306;5.634;2023-02-03T01:36:16;102198.41;;;15.77;54.86
60319;BME280;46163;52.306;5.634;2023-02-03T01:38:43;102196.75;;;15.76;54.83
60319;BME280;46163;52.306;5.634;2023-02-03T01:41:12;102189.72;;;15.75;54.88
60319;BME280;46163;52.306;5.634;2023-02-03T01:43:44;102181.88;;;15.74;54.92
60319;BME280;46163;52.306;5.634;2023-02-03T01:46:44;102185.78;;;15.71;54.76
60319;BME280;46163;52.306;5.634;2023-02-03T01:49:15;102185.78;;;15.71;54.78
60319;BME280;46163;52.306;5.634;2023-02-03T01:51:44;102175.03;;;15.71;54.91
60319;BME280;46163;52.306;5.634;2023-02-03T01:54:18;102166.38;;;15.69;54.82
60319;BME280;46163;52.306;5.634;2023-02-03T01:56:47;102168.22;;;15.69;54.88
60319;BME280;46163;52.306;5.634;2023-02-03T01:59:16;102168.44;;;15.67;54.78
60319;BME280;46163;52.306;5.634;2023-02-03T02:01:43;102169.47;;;15.66;54.92
60319;BME280;46163;52.306;5.634;2023-02-03T02:04:09;102165.75;;;15.67;54.84
60319;BME280;46163;52.306;5.634;2023-02-03T02:06:35;102169.47;;;15.66;54.90
60319;BME280;46163;52.306;5.634;2023-02-03T02:09:01;102178.56;;;15.65;54.60
60319;BME280;46163;52.306;5.634;2023-02-03T02:11:31;102181.63;;;15.62;54.92
60319;BME280;46163;52.306;5.634;2023-02-03T02:14:00;102184.94;;;15.64;54.91
60319;BME280;46163;52.306;5.634;2023-02-03T02:17:02;102181.63;;;15.62;54.82
60319;BME280;46163;52.306;5.634;2023-02-03T02:22:21;102161.34;;;15.60;54.80
60319;BME280;46163;52.306;5.634;2023-02-03T02:30:38;102172.28;;;15.58;54.88
60319;BME280;46163;52.306;5.634;2023-02-03T02:33:32;102171.03;;;15.54;54.44
60319;BME280;46163;52.306;5.634;2023-02-03T02:36:20;102166.47;;;15.54;54.75
60319;BME280;46163;52.306;5.634;2023-02-03T02:39:09;102160.13;;;15.55;54.58
60319;BME280;46163;52.306;5.634;2023-02-03T02:41:38;102148.75;;;15.53;54.80
60319;BME280;46163;52.306;5.634;2023-02-03T02:44:23;102152.25;;;15.54;54.61
60319;BME280;46163;52.306;5.634;2023-02-03T02:46:59;102142.75;;;15.51;54.84
60319;BME280;46163;52.306;5.634;2023-02-03T02:49:59;102142.75;;;15.51;54.82
60319;BME280;46163;52.306;5.634;2023-02-03T02:52:31;102135.31;;;15.47;54.87
60319;BME280;46163;52.306;5.634;2023-02-03T02:55:04;102147.50;;;15.49;54.75
60319;BME280;46163;52.306;5.634;2023-02-03T02:57:33;102159.25;;;15.48;54.80
60319;BME280;46163;52.306;5.634;2023-02-03T03:00:01;102157.63;;;15.47;54.87
60319;BME280;46163;52.306;5.634;2023-02-03T03:02:35;102143.38;;;15.47;54.83
60319;BME280;46163;52.306;5.634;2023-02-03T03:05:02;102148.75;;;15.47;54.73
60319;BME280;46163;52.306;5.634;2023-02-03T03:07:29;102129.31;;;15.45;54.74
60319;BME280;46163;52.306;5.634;2023-02-03T03:10:07;102130.53;;;15.42;54.75
60319;BME280;46163;52.306;5.634;2023-02-03T03:12:37;102155.31;;;15.44;54.59
60319;BME280;46163;52.306;5.634;2023-02-03T03:15:09;102135.50;;;15.39;54.53
60319;BME280;46163;52.306;5.634;2023-02-03T03:17:41;102135.69;;;15.44;54.67
60319;BME280;46163;52.306;5.634;2023-02-03T03:20:16;102133.03;;;15.44;54.75
60319;BME280;46163;52.306;5.634;2023-02-03T03:23:03;102152.84;;;15.43;54.64
60319;BME280;46163;52.306;5.634;2023-02-03T03:25:39;102158.41;;;15.41;54.61
60319;BME280;46163;52.306;5.634;2023-02-03T03:28:10;102148.72;;;15.40;54.82
60319;BME280;46163;52.306;5.634;2023-02-03T03:30:38;102156.13;;;15.38;54.72
60319;BME280;46163;52.306;5.634;2023-02-03T03:33:05;102152.41;;;15.39;54.71
60319;BME280;46163;52.306;5.634;2023-02-03T03:35:48;102152.63;;;15.38;54.75
60319;BME280;46163;52.306;5.634;2023-02-03T03:38:45;102158.00;;;15.38;54.59
60319;BME280;46163;52.306;5.634;2023-02-03T03:41:23;102151.78;;;15.37;54.68
60319;BME280;46163;52.306;5.634;2023-02-03T03:43:51;102145.56;;;15.37;54.39
60319;BME280;46163;52.306;5.634;2023-02-03T03:46:24;102149.28;;;15.36;54.83
60319;BME280;46163;52.306;5.634;2023-02-03T03:48:57;102159.19;;;15.35;54.74
60319;BME280;46163;52.306;5.634;2023-02-03T03:54:12;102157.75;;;15.33;54.72
60319;BME280;46163;52.306;5.634;2023-02-03T03:56:45;102155.06;;;15.33;54.60
60319;BME280;46163;52.306;5.634;2023-02-03T03:59:13;102158.56;;;15.33;54.58
60319;BME280;46163;52.306;5.634;2023-02-03T04:01:41;102148.06;;;15.32;54.66
60319;BME280;46163;52.306;5.634;2023-02-03T04:04:09;102170.53;;;15.31;54.55
60319;BME280;46163;52.306;5.634;2023-02-03T04:06:37;102167.03;;;15.30;54.60
60319;BME280;46163;52.306;5.634;2023-02-03T04:09:05;102165.13;;;15.24;54.72
60319;BME280;46163;52.306;5.634;2023-02-03T04:11:31;102177.09;;;15.28;54.83
60319;BME280;46163;52.306;5.634;2023-02-03T04:14:17;102175.66;;;15.25;54.73
60319;BME280;46163;52.306;5.634;2023-02-03T04:16:42;102184.16;;;15.29;54.61
60319;BME280;46163;52.306;5.634;2023-02-03T04:19:07;102171.75;;;15.28;54.72
60319;BME280;46163;52.306;5.634;2023-02-03T04:21:33;102167.63;;;15.25;54.83
60319;BME280;46163;52.306;5.634;2023-02-03T04:23:58;102184.16;;;15.29;54.63
60319;BME280;46163;52.306;5.634;2023-02-03T04:26:24;102165.59;;;15.34;54.54
60319;BME280;46163;52.306;5.634;2023-02-03T04:28:49;102162.13;;;15.40;54.43
60319;BME280;46163;52.306;5.634;2023-02-03T04:31:15;102156.97;;;15.45;54.46
60319;BME280;46163;52.306;5.634;2023-02-03T04:33:41;102168.97;;;15.49;54.30
60319;BME280;46163;52.306;5.634;2023-02-03T04:36:07;102144.84;;;15.56;54.11
60319;BME280;46163;52.306;5.634;2023-02-03T04:38:35;102150.88;;;15.65;54.08
60319;BME280;46163;52.306;5.634;2023-02-03T04:41:00;102136.25;;;15.74;53.90
60319;BME280;46163;52.306;5.634;2023-02-03T04:43:26;102140.41;;;15.83;53.52
60319;BME280;46163;52.306;5.634;2023-02-03T04:45:51;102128.66;;;15.91;53.63
60319;BME280;46163;52.306;5.634;2023-02-03T04:48:17;102148.91;;;16.00;53.33
60319;BME280;46163;52.306;5.634;2023-02-03T04:50:43;102155.50;;;16.10;53.27
60319;BME280;46163;52.306;5.634;2023-02-03T04:53:08;102151.81;;;16.18;52.98
60319;BME280;46163;52.306;5.634;2023-02-03T04:55:34;102152.44;;;16.27;52.72
60319;BME280;46163;52.306;5.634;2023-02-03T04:58:00;102141.47;;;16.35;52.64
60319;BME280;46163;52.306;5.634;2023-02-03T05:00:27;102145.59;;;16.44;52.50
60319;BME280;46163;52.306;5.634;2023-02-03T05:02:53;102141.06;;;16.51;52.28
60319;BME280;46163;52.306;5.634;2023-02-03T05:05:19;102151.38;;;16.54;52.08
60319;BME280;46163;52.306;5.634;2023-02-03T05:07:45;102134.41;;;16.67;51.95
60319;BME280;46163;52.306;5.634;2023-02-03T05:10:11;102146.81;;;16.75;51.92
60319;BME280;46163;52.306;5.634;2023-02-03T05:12:36;102140.63;;;16.81;51.58
60319;BME280;46163;52.306;5.634;2023-02-03T05:15:03;102154.28;;;16.86;51.60
60319;BME280;46163;52.306;5.634;2023-02-03T05:17:28;102163.34;;;16.91;51.26
60319;BME280;46163;52.306;5.634;2023-02-03T05:19:54;102157.13;;;16.98;51.30
60319;BME280;46163;52.306;5.634;2023-02-03T05:22:22;102146.16;;;16.99;51.24
60319;BME280;46163;52.306;5.634;2023-02-03T05:24:47;102157.50;;;17.08;50.96
60319;BME280;46163;52.306;5.634;2023-02-03T05:27:13;102162.28;;;17.12;51.03
60319;BME280;46163;52.306;5.634;2023-02-03T05:29:38;102150.84;;;17.17;50.67
60319;BME280;46163;52.306;5.634;2023-02-03T05:32:04;102135.97;;;17.21;50.73
60319;BME280;46163;52.306;5.634;2023-02-03T05:34:30;102156.00;;;17.25;50.72
60319;BME280;46163;52.306;5.634;2023-02-03T05:36:55;102157.44;;;17.28;50.69
60319;BME280;46163;52.306;5.634;2023-02-03T05:39:21;102145.22;;;17.32;50.43
60319;BME280;46163;52.306;5.634;2023-02-03T05:41:46;102137.53;;;17.35;50.45
60319;BME280;46163;52.306;5.634;2023-02-03T05:44:26;102143.13;;;17.40;50.54
60319;BME280;46163;52.306;5.634;2023-02-03T05:46:54;102144.97;;;17.40;50.41
60319;BME280;46163;52.306;5.634;2023-02-03T05:49:21;102153.03;;;17.46;50.48
60319;BME280;46163;52.306;5.634;2023-02-03T05:51:51;102161.28;;;17.51;50.09
60319;BME280;46163;52.306;5.634;2023-02-03T05:54:17;102157.13;;;17.56;50.24
60319;BME280;46163;52.306;5.634;2023-02-03T05:56:43;102154.59;;;17.61;49.94
60319;BME280;46163;52.306;5.634;2023-02-03T05:59:08;102137.84;;;17.59;50.08
60319;BME280;46163;52.306;5.634;2023-02-03T06:01:35;102136.53;;;17.68;50.27
60319;BME280;46163;52.306;5.634;2023-02-03T06:04:01;102141.31;;;17.72;49.87
60319;BME280;46163;52.306;5.634;2023-02-03T06:06:28;102133.84;;;17.74;49.67
60319;BME280;46163;52.306;5.634;2023-02-03T06:09:02;102132.13;;;17.80;49.75
60319;BME280;46163;52.306;5.634;2023-02-03T06:11:28;102138.97;;;17.83;49.65
60319;BME280;46163;52.306;5.634;2023-02-03T06:13:55;102138.97;;;17.83;49.58
60319;BME280;46163;52.306;5.634;2023-02-03T06:16:22;102140.59;;;17.90;49.54
60319;BME280;46163;52.306;5.634;2023-02-03T06:18:52;102143.88;;;17.92;49.61
60319;BME280;46163;52.306;5.634;2023-02-03T06:21:18;102137.22;;;17.95;49.38
60319;BME280;46163;52.306;5.634;2023-02-03T06:23:45;102152.13;;;17.97;49.37
60319;BME280;46163;52.306;5.634;2023-02-03T06:26:11;102162.06;;;17.97;49.21
60319;BME280;46163;52.306;5.634;2023-02-03T06:28:36;102153.16;;;17.96;49.39
60319;BME280;46163;52.306;5.634;2023-02-03T06:31:03;102150.69;;;17.95;49.68
60319;BME280;46163;52.306;5.634;2023-02-03T06:33:29;102155.44;;;17.99;49.59
60319;BME280;46163;52.306;5.634;2023-02-03T06:35:57;102155.44;;;17.99;49.67
60319;BME280;46163;52.306;5.634;2023-02-03T06:38:23;102163.06;;;18.02;49.66
60319;BME280;46163;52.306;5.634;2023-02-03T06:40:48;102169.50;;;18.01;49.59
60319;BME280;46163;52.306;5.634;2023-02-03T06:43:15;102161.44;;;18.01;49.81
60319;BME280;46163;52.306;5.634;2023-02-03T06:45:44;102167.63;;;18.02;50.08
60319;BME280;46163;52.306;5.634;2023-02-03T06:48:10;102177.38;;;18.03;50.18
60319;BME280;46163;52.306;5.634;2023-02-03T06:50:35;102175.28;;;18.05;50.09
60319;BME280;46163;52.306;5.634;2023-02-03T06:53:02;102170.94;;;18.04;50.27
60319;BME280;46163;52.306;5.634;2023-02-03T06:55:27;102178.78;;;18.05;50.30
60319;BME280;46163;52.306;5.634;2023-02-03T06:57:52;102166.59;;;18.03;50.22
60319;BME280;46163;52.306;5.634;2023-02-03T07:00:18;102182.72;;;18.10;50.03
60319;BME280;46163;52.306;5.634;2023-02-03T07:02:44;102166.97;;;18.06;50.22
60319;BME280;46163;52.306;5.634;2023-02-03T07:05:10;102173.59;;;18.11;50.14
60319;BME280;46163;52.306;5.634;2023-02-03T07:07:36;102175.91;;;18.07;50.23
60319;BME280;46163;52.306;5.634;2023-02-03T07:10:06;102183.31;;;18.12;50.09
60319;BME280;46163;52.306;5.634;2023-02-03T07:12:31;102185.78;;;18.13;50.07
60319;BME280;46163;52.306;5.634;2023-02-03T07:14:57;102181.00;;;18.15;50.12
60319;BME280;46163;52.306;5.634;2023-02-03T07:17:22;102180.00;;;18.16;50.33
60319;BME280;46163;52.306;5.634;2023-02-03T07:19:48;102173.78;;;18.16;50.97
60319;BME280;46163;52.306;5.634;2023-02-03T07:22:13;102173.56;;;18.17;51.20
60319;BME280;46163;52.306;5.634;2023-02-03T07:24:41;102177.91;;;18.18;50.68
60319;BME280;46163;52.306;5.634;2023-02-03T07:27:07;102182.00;;;18.21;50.39
60319;BME280;46163;52.306;5.634;2023-02-03T07:29:33;102175.56;;;18.22;50.26
60319;BME280;46163;52.306;5.634;2023-02-03T07:31:58;102184.25;;;18.24;50.07
60319;BME280;46163;52.306;5.634;2023-02-03T07:34:26;102193.19;;;18.24;50.25
60319;BME280;46163;52.306;5.634;2023-02-03T07:36:52;102173.31;;;18.19;50.00
60319;BME280;46163;52.306;5.634;2023-02-03T07:39:17;102191.31;;;18.25;50.07
60319;BME280;46163;52.306;5.634;2023-02-03T07:41:43;102202.94;;;18.25;49.87
60319;BME280;46163;52.306;5.634;2023-02-03T07:44:08;102200.00;;;18.27;49.85
60319;BME280;46163;52.306;5.634;2023-02-03T07:46:34;102213.91;;;18.24;50.02
60319;BME280;46163;52.306;5.634;2023-02-03T07:49:04;102215.16;;;18.21;50.07
60319;BME280;46163;52.306;5.634;2023-02-03T07:51:30;102225.13;;;18.21;49.84
60319;BME280;46163;52.306;5.634;2023-02-03T07:53:56;102216.00;;;18.22;49.89
60319;BME280;46163;52.306;5.634;2023-02-03T07:56:21;102216.22;;;18.20;50.01
60319;BME280;46163;52.306;5.634;2023-02-03T07:58:47;102223.47;;;18.20;50.03
60319;BME280;46163;52.306;5.634;2023-02-03T08:01:15;102229.91;;;18.19;49.77
60319;BME280;46163;52.306;5.634;2023-02-03T08:03:41;102228.25;;;18.18;50.22
60319;BME280;46163;52.306;5.634;2023-02-03T08:06:09;102227.81;;;18.21;50.59
60319;BME280;46163;52.306;5.634;2023-02-03T08:08:34;102225.94;;;18.21;50.01
60319;BME280;46163;52.306;5.634;2023-02-03T08:11:00;102239.41;;;18.21;49.95
60319;BME280;46163;52.306;5.634;2023-02-03T08:13:26;102247.28;;;18.23;50.06
60319;BME280;46163;52.306;5.634;2023-02-03T08:15:52;102260.75;;;18.23;50.12
60319;BME280;46163;52.306;5.634;2023-02-03T08:18:21;102256.00;;;18.25;50.09
60319;BME280;46163;52.306;5.634;2023-02-03T08:20:46;102230.78;;;18.13;49.89
60319;BME280;46163;52.306;5.634;2023-02-03T08:23:15;102249.13;;;18.29;49.49
60319;BME280;46163;52.306;5.634;2023-02-03T08:25:40;102255.56;;;18.28;49.53
60319;BME280;46163;52.306;5.634;2023-02-03T08:28:06;102252.63;;;18.29;49.62
60319;BME280;46163;52.306;5.634;2023-02-03T08:30:32;102250.31;;;18.33;49.75
60319;BME280;46163;52.306;5.634;2023-02-03T08:33:00;102237.88;;;18.32;49.84
60319;BME280;46163;52.306;5.634;2023-02-03T08:35:25;102259.44;;;18.32;49.80
60319;BME280;46163;52.306;5.634;2023-02-03T08:37:51;102255.09;;;18.31;49.66
60319;BME280;46163;52.306;5.634;2023-02-03T08:40:17;102263.19;;;18.31;49.48
60319;BME280;46163;52.306;5.634;2023-02-03T08:42:43;102270.03;;;18.33;49.46
60319;BME280;46163;52.306;5.634;2023-02-03T08:45:08;102278.31;;;18.32;49.22
60319;BME280;46163;52.306;5.634;2023-02-03T08:47:37;102259.66;;;18.30;49.25
60319;BME280;46163;52.306;5.634;2023-02-03T08:50:04;102271.72;;;18.28;49.14
60319;BME280;46163;52.306;5.634;2023-02-03T08:52:31;102269.66;;;18.23;49.12
60319;BME280;46163;52.306;5.634;2023-02-03T08:54:56;102266.38;;;18.21;49.33
60319;BME280;46163;52.306;5.634;2023-02-03T08:57:22;102274.44;;;18.21;49.36
60319;BME280;46163;52.306;5.634;2023-02-03T08:59:47;102265.16;;;18.17;49.38
60319;BME280;46163;52.306;5.634;2023-02-03T09:02:16;102274.06;;;18.18;49.87
60319;BME280;46163;52.306;5.634;2023-02-03T09:04:41;102283.56;;;18.20;49.77
60319;BME280;46163;52.306;5.634;2023-02-03T09:07:07;102260.81;;;18.16;49.92
60319;BME280;46163;52.306;5.634;2023-02-03T09:09:33;102287.09;;;18.21;49.94
60319;BME280;46163;52.306;5.634;2023-02-03T09:11:59;102277.97;;;18.22;49.96
60319;BME280;46163;52.306;5.634;2023-02-03T09:14:30;102279.00;;;18.21;50.21
60319;BME280;46163;52.306;5.634;2023-02-03T09:16:58;102274.66;;;18.20;50.21
60319;BME280;46163;52.306;5.634;2023-02-03T09:19:23;102276.16;;;18.16;50.41
60319;BME280;46163;52.306;5.634;2023-02-03T09:21:49;102288.59;;;18.17;50.36
60319;BME280;46163;52.306;5.634;2023-02-03T09:24:17;102272.00;;;18.13;50.42
60319;BME280;46163;52.306;5.634;2023-02-03T09:26:43;102283.59;;;18.14;50.43
60319;BME280;46163;52.306;5.634;2023-02-03T09:29:09;102279.72;;;18.10;50.44
60319;BME280;46163;52.306;5.634;2023-02-03T09:31:35;102272.44;;;18.10;50.63
60319;BME280;46163;52.306;5.634;2023-02-03T09:34:01;102278.06;;;18.08;50.75
60319;BME280;46163;52.306;5.634;2023-02-03T09:36:27;102291.75;;;18.07;50.66
60319;BME280;46163;52.306;5.634;2023-02-03T09:38:55;102298.38;;;18.04;50.83
60319;BME280;46163;52.306;5.634;2023-02-03T09:47:22;102290.13;;;17.99;50.67
60319;BME280;46163;52.306;5.634;2023-02-03T09:49:51;102287.63;;;17.98;50.81
60319;BME280;46163;52.306;5.634;2023-02-03T09:52:20;102298.63;;;17.96;50.93
60319;BME280;46163;52.306;5.634;2023-02-03T09:55:30;102293.22;;;17.96;50.94
60319;BME280;46163;52.306;5.634;2023-02-03T09:58:04;102294.94;;;17.84;51.05
60319;BME280;46163;52.306;5.634;2023-02-03T10:00:52;102307.75;;;17.89;50.94
60319;BME280;46163;52.306;5.634;2023-02-03T10:03:43;102304.47;;;17.87;50.91
60319;BME280;46163;52.306;5.634;2023-02-03T10:06:21;102309.03;;;17.86;51.47
60319;BME280;46163;52.306;5.634;2023-02-03T10:09:15;102305.72;;;17.84;51.35
60319;BME280;46163;52.306;5.634;2023-02-03T10:17:54;102332.88;;;17.76;51.75
60319;BME280;46163;52.306;5.634;2023-02-03T10:20:42;102349.03;;;17.76;51.90
60319;BME280;46163;52.306;5.634;2023-02-03T10:23:16;102336.63;;;17.75;51.86
60319;BME280;46163;52.306;5.634;2023-02-03T10:25:52;102336.63;;;17.75;52.05
60319;BME280;46163;52.306;5.634;2023-02-03T10:28:23;102337.66;;;17.74;52.12
60319;BME280;46163;52.306;5.634;2023-02-03T10:30:54;102345.97;;;17.72;52.13
60319;BME280;46163;52.306;5.634;2023-02-03T10:33:24;102352.16;;;17.73;52.47
60319;BME280;46163;52.306;5.634;2023-02-03T10:35:57;102356.72;;;17.72;52.22
60319;BME280;46163;52.306;5.634;2023-02-03T10:40:58;102365.00;;;17.71;52.40
60319;BME280;46163;52.306;5.634;2023-02-03T10:43:23;102363.13;;;17.71;52.51
60319;BME280;46163;52.306;5.634;2023-02-03T10:46:08;102366.03;;;17.70;52.24
60319;BME280;46163;52.306;5.634;2023-02-03T10:48:34;102354.00;;;17.66;52.37
60319;BME280;46163;52.306;5.634;2023-02-03T10:51:00;102363.53;;;17.68;52.36
60319;BME280;46163;52.306;5.634;2023-02-03T10:53:34;102359.19;;;17.67;52.27
60319;BME280;46163;52.306;5.634;2023-02-03T10:56:07;102359.78;;;17.63;52.37
60319;BME280;46163;52.306;5.634;2023-02-03T10:58:33;102373.91;;;17.65;52.31
60319;BME280;46163;52.306;5.634;2023-02-03T11:01:37;102385.72;;;17.64;52.60
60319;BME280;46163;52.306;5.634;2023-02-03T11:04:05;102374.31;;;17.62;52.42
60319;BME280;46163;52.306;5.634;2023-02-03T11:06:33;102374.50;;;17.60;52.80
60319;BME280;46163;52.306;5.634;2023-02-03T11:09:00;102383.63;;;17.59;52.65
60319;BME280;46163;52.306;5.634;2023-02-03T11:11:29;102397.31;;;17.58;52.48
60319;BME280;46163;52.306;5.634;2023-02-03T11:16:34;102377.44;;;17.52;52.61
60319;BME280;46163;52.306;5.634;2023-02-03T11:19:03;102391.09;;;17.50;52.76
60319;BME280;46163;52.306;5.634;2023-02-03T11:26:48;102393.78;;;17.44;53.04
60319;BME280;46163;52.306;5.634;2023-02-03T11:29:28;102392.34;;;17.41;53.16
60319;BME280;46163;52.306;5.634;2023-02-03T11:32:00;102394.81;;;17.36;53.63
60319;BME280;46163;52.306;5.634;2023-02-03T11:36:54;102414.91;;;17.34;54.32
60319;BME280;46163;52.306;5.634;2023-02-03T11:41:48;102413.69;;;17.30;54.66
60319;BME280;46163;52.306;5.634;2023-02-03T11:44:26;102409.31;;;17.29;54.76
60319;BME280;46163;52.306;5.634;2023-02-03T11:47:08;102404.34;;;17.26;54.81
60319;BME280;46163;52.306;5.634;2023-02-03T11:52:49;102404.78;;;17.22;54.75
60319;BME280;46163;52.306;5.634;2023-02-03T11:58:19;102409.53;;;17.20;54.95
60319;BME280;46163;52.306;5.634;2023-02-03T12:17:28;102428.38;;;17.14;54.95
60319;BME280;46163;52.306;5.634;2023-02-03T12:23:22;102438.50;;;17.12;54.60
60319;BME280;46163;52.306;5.634;2023-02-03T12:26:12;102441.19;;;17.12;54.69
60319;BME280;46163;52.306;5.634;2023-02-03T12:29:08;102451.97;;;17.12;54.75
60319;BME280;46163;52.306;5.634;2023-02-03T12:34:38;102440.75;;;17.08;54.58
60319;BME280;46163;52.306;5.634;2023-02-03T12:40:33;102473.66;;;17.10;54.54
60319;BME280;46163;52.306;5.634;2023-02-03T12:45:51;102481.94;;;17.09;54.39
60319;BME280;46163;52.306;5.634;2023-02-03T12:48:24;102472.22;;;17.08;54.41
60319;BME280;46163;52.306;5.634;2023-02-03T12:50:55;102469.53;;;17.08;54.46
60319;BME280;46163;52.306;5.634;2023-02-03T12:53:38;102469.13;;;17.04;54.44
60319;BME280;46163;52.306;5.634;2023-02-03T12:56:34;102471.59;;;17.06;54.35
60319;BME280;46163;52.306;5.634;2023-02-03T12:59:08;102461.44;;;17.01;54.04
60319;BME280;46163;52.306;5.634;2023-02-03T13:02:00;102478.22;;;17.03;54.15
60319;BME280;46163;52.306;5.634;2023-02-03T13:05:16;102474.69;;;17.03;54.42
60319;BME280;46163;52.306;5.634;2023-02-03T13:07:46;102483.78;;;17.02;54.23
60319;BME280;46163;52.306;5.634;2023-02-03T13:10:28;102477.38;;;17.03;54.37
60319;BME280;46163;52.306;5.634;2023-02-03T13:12:57;102485.25;;;17.04;54.08
60319;BME280;46163;52.306;5.634;2023-02-03T13:20:34;102483.81;;;17.15;53.82
60319;BME280;46163;52.306;5.634;2023-02-03T13:23:06;102490.03;;;17.22;53.82
60319;BME280;46163;52.306;5.634;2023-02-03T13:28:56;102498.53;;;17.32;53.73
60319;BME280;46163;52.306;5.634;2023-02-03T13:34:17;102488.19;;;17.42;53.53
60319;BME280;46163;52.306;5.634;2023-02-03T13:37:06;102473.31;;;17.46;53.31
60319;BME280;46163;52.306;5.634;2023-02-03T13:44:56;102460.88;;;17.65;52.96
60319;BME280;46163;52.306;5.634;2023-02-03T13:47:28;102464.22;;;17.74;53.10
60319;BME280;46163;52.306;5.634;2023-02-03T13:49:58;102482.22;;;17.80;52.89
60319;BME280;46163;52.306;5.634;2023-02-03T13:53:07;102477.66;;;17.87;52.63
60319;BME280;46163;52.306;5.634;2023-02-03T13:55:43;102480.13;;;17.95;52.58
60319;BME280;46163;52.306;5.634;2023-02-03T13:58:30;102488.59;;;18.05;52.69
60319;BME280;46163;52.306;5.634;2023-02-03T14:01:02;102487.97;;;18.10;52.35
60319;BME280;46163;52.306;5.634;2023-02-03T14:05:58;102495.19;;;18.23;52.26
60319;BME280;46163;52.306;5.634;2023-02-03T14:14:39;102514.44;;;18.40;51.73
60319;BME280;46163;52.306;5.634;2023-02-03T14:16:49;102510.91;;;18.46;51.80
60319;BME280;46163;52.306;5.634;2023-02-03T14:21:59;102512.53;;;18.53;51.47
60319;BME280;46163;52.306;5.634;2023-02-03T14:24:32;102511.06;;;18.57;51.28
60319;BME280;46163;52.306;5.634;2023-02-03T14:27:00;102521.22;;;18.62;51.18
60319;BME280;46163;52.306;5.634;2023-02-03T14:29:31;102523.91;;;18.62;51.18
60319;BME280;46163;52.306;5.634;2023-02-03T14:31:59;102522.47;;;18.66;51.09
60319;BME280;46163;52.306;5.634;2023-02-03T14:36:54;102534.88;;;18.74;50.83
60319;BME280;46163;52.306;5.634;2023-02-03T14:42:08;102548.56;;;18.79;50.87
60319;BME280;46163;52.306;5.634;2023-02-03T14:59:01;102538.59;;;18.86;50.65
60319;BME280;46163;52.306;5.634;2023-02-03T15:04:20;102537.31;;;18.88;50.39
60319;BME280;46163;52.306;5.634;2023-02-03T15:06:51;102537.94;;;18.90;50.46
60319;BME280;46163;52.306;5.634;2023-02-03T15:09:42;102538.75;;;18.91;50.37